Time;durP1;ratioP1;P1;durP2;ratioP2;P2;SDS_P1;SDS_P2;PMS_P1;PMS_P2;Temp;Humidity;BMP_temperature;BMP_pressure;BME280_temperature;BME280_humidity;BME280_pressure;Samples;Min_cycle;Max_cycle;Signal;HPM_P1;HPM_P2
2023/03/01 00:02:24;;;;;;;11.48;7.55;;;;;;;0.86;68.89;102916.56;5026178;28;20367;-73
2023/03/01 00:04:49;;;;;;;9.25;6.93;;;;;;;0.83;67.89;102912.31;5015244;28;20029;-73
2023/03/01 00:07:14;;;;;;;11.95;7.50;;;;;;;0.86;68.32;102912.09;5038717;28;20455;-73
2023/03/01 00:09:40;;;;;;;10.15;7.93;;;;;;;0.86;67.84;102909.44;5042346;28;20072;-73
2023/03/01 00:12:06;;;;;;;9.00;7.65;;;;;;;0.84;68.04;102914.00;5017970;28;20029;-73
2023/03/01 00:14:33;;;;;;;9.07;7.53;;;;;;;0.82;67.77;102913.28;5035110;28;20025;-73
2023/03/01 00:16:59;;;;;;;11.80;7.63;;;;;;;0.87;67.69;102911.13;5033774;28;20030;-73
2023/03/01 00:19:24;;;;;;;9.55;7.90;;;;;;;0.82;68.53;102915.09;5017384;28;20460;-73
2023/03/01 00:21:49;;;;;;;12.27;8.00;;;;;;;0.84;68.02;102915.81;5034862;28;20026;-73
2023/03/01 00:24:15;;;;;;;10.02;7.50;;;;;;;0.82;67.71;102915.94;5026062;28;20163;-73
2023/03/01 00:26:41;;;;;;;9.50;7.75;;;;;;;0.82;67.59;102910.59;5030729;28;20068;-73
2023/03/01 00:29:06;;;;;;;10.85;7.30;;;;;;;0.85;67.91;102904.22;5023199;28;20334;-73
2023/03/01 00:31:33;;;;;;;12.93;7.60;;;;;;;0.79;67.51;102908.16;5035649;28;20067;-73
2023/03/01 00:34:01;;;;;;;11.32;7.90;;;;;;;0.78;68.35;102906.44;5034544;28;20055;-73
2023/03/01 00:36:29;;;;;;;11.00;7.93;;;;;;;0.73;68.16;102913.09;5014499;28;20374;-73
2023/03/01 00:38:54;;;;;;;10.15;8.52;;;;;;;0.73;68.89;102908.59;5034556;28;20037;-73
2023/03/01 00:41:22;;;;;;;13.90;7.97;;;;;;;0.71;68.39;102913.19;5017621;28;20052;-73
2023/03/01 00:43:49;;;;;;;12.15;8.00;;;;;;;0.69;68.38;102912.44;5019716;28;20047;-73
2023/03/01 00:46:18;;;;;;;12.80;8.63;;;;;;;0.66;69.01;102912.66;5018962;28;20030;-73
2023/03/01 00:48:43;;;;;;;10.73;8.00;;;;;;;0.60;68.63;102908.59;5029614;28;20048;-73
2023/03/01 00:51:21;;;;;;;13.15;8.32;;;;;;;0.60;69.41;102908.59;5029244;28;20057;-73
2023/03/01 00:53:50;;;;;;;8.82;7.93;;;;;;;0.56;69.80;102906.28;5013443;28;20469;-73
2023/03/01 00:56:16;;;;;;;9.50;7.72;;;;;;;0.55;70.66;102897.44;5028302;28;20404;-73
2023/03/01 00:58:41;;;;;;;13.35;8.15;;;;;;;0.56;70.39;102892.94;5016242;28;20029;-74
2023/03/01 01:01:16;;;;;;;11.40;8.00;;;;;;;0.54;70.58;102898.38;5022126;28;20501;-73
2023/03/01 01:03:48;;;;;;;12.27;7.85;;;;;;;0.48;70.40;102891.72;5020159;28;20037;-74
2023/03/01 01:06:15;;;;;;;11.00;8.07;;;;;;;0.49;71.41;102889.88;5031540;28;20029;-73
2023/03/01 01:08:40;;;;;;;10.60;8.20;;;;;;;0.48;72.65;102889.03;5019364;28;20029;-74
2023/03/01 01:11:09;;;;;;;10.73;8.70;;;;;;;0.40;72.62;102885.22;5034845;28;20465;-74
2023/03/01 01:13:34;;;;;;;12.35;8.25;;;;;;;0.45;72.29;102883.91;5032557;28;20056;-74
2023/03/01 01:16:03;;;;;;;10.18;8.32;;;;;;;0.44;72.06;102887.53;5045785;28;20419;-74
2023/03/01 01:18:28;;;;;;;10.73;8.48;;;;;;;0.35;72.94;102882.88;5027540;28;20047;-74
2023/03/01 01:20:53;;;;;;;11.73;8.18;;;;;;;0.37;73.04;102878.28;5033944;28;20108;-74
2023/03/01 01:23:19;;;;;;;11.13;7.93;;;;;;;0.38;72.98;102881.78;5015581;28;20082;-74
2023/03/01 01:25:44;;;;;;;12.23;8.30;;;;;;;0.34;73.37;102875.81;5032728;28;20038;-74
2023/03/01 01:28:09;;;;;;;10.82;8.35;;;;;;;0.32;74.34;102869.78;5031955;28;20120;-74
2023/03/01 01:30:34;;;;;;;10.07;8.32;;;;;;;0.31;72.47;102866.22;5030759;28;20061;-74
2023/03/01 01:33:00;;;;;;;11.32;8.02;;;;;;;0.31;74.20;102858.25;5039509;28;20025;-74
2023/03/01 01:35:25;;;;;;;12.75;8.30;;;;;;;0.24;73.63;102849.00;5033720;28;20036;-74
2023/03/01 01:37:50;;;;;;;13.43;8.40;;;;;;;0.25;73.80;102852.50;5034197;28;20507;-74
2023/03/01 01:40:16;;;;;;;11.05;8.48;;;;;;;0.20;74.62;102846.63;5033118;28;20108;-74
2023/03/01 01:42:41;;;;;;;12.65;8.07;;;;;;;0.23;74.70;102843.75;5035235;28;20032;-73
2023/03/01 01:45:36;;;;;;;12.50;8.20;;;;;;;0.30;74.29;102837.91;5034321;28;20358;-74
2023/03/01 01:48:10;;;;;;;11.70;7.93;;;;;;;0.21;73.15;102845.69;5005494;28;20477;-74
2023/03/01 01:50:39;;;;;;;10.90;7.95;;;;;;;0.22;73.85;102834.09;5030753;28;20376;-74
2023/03/01 01:53:09;;;;;;;9.35;7.75;;;;;;;0.19;73.64;102834.31;5007223;28;20095;-74
2023/03/01 01:55:37;;;;;;;10.20;8.00;;;;;;;0.19;73.49;102840.47;5016153;28;20384;-74
2023/03/01 01:58:05;;;;;;;11.60;8.20;;;;;;;0.21;73.11;102837.69;5003730;28;20034;-74
2023/03/01 02:00:31;;;;;;;9.75;8.18;;;;;;;0.17;72.30;102837.06;5030219;28;20025;-73
2023/03/01 02:03:01;;;;;;;12.25;8.25;;;;;;;0.12;73.58;102834.75;5022019;28;20040;-74
2023/03/01 02:05:32;;;;;;;12.60;8.57;;;;;;;0.12;74.20;102826.75;5014789;28;20133;-74
2023/03/01 02:07:59;;;;;;;9.40;7.80;;;;;;;0.15;73.73;102829.19;5032004;28;20083;-74
2023/03/01 02:10:25;;;;;;;11.07;8.52;;;;;;;0.07;75.67;102818.22;5031168;28;20038;-74
2023/03/01 02:12:54;;;;;;;12.88;8.10;;;;;;;0.04;73.91;102814.94;5031822;28;20091;-74
2023/03/01 02:15:22;;;;;;;11.07;8.30;;;;;;;-0.06;75.11;102807.59;5014632;28;20033;-74
2023/03/01 02:17:48;;;;;;;11.90;8.30;;;;;;;-0.01;76.11;102812.59;5030171;28;20030;-74
2023/03/01 02:20:19;;;;;;;9.50;7.85;;;;;;;0.03;75.17;102813.22;5014472;28;20044;-74
2023/03/01 02:22:46;;;;;;;11.15;8.23;;;;;;;-0.01;75.12;102812.59;5020013;28;20042;-74
2023/03/01 02:25:18;;;;;;;11.38;8.50;;;;;;;-0.02;75.71;102805.56;5011819;28;20050;-74
2023/03/01 02:27:49;;;;;;;12.02;8.25;;;;;;;-0.02;74.32;102805.56;5013249;28;20470;-74
2023/03/01 02:30:15;;;;;;;11.05;7.93;;;;;;;-0.06;75.88;102804.06;5015373;28;20393;-74
2023/03/01 02:32:41;;;;;;;11.57;8.50;;;;;;;-0.05;75.30;102811.09;5020373;28;20045;-74
2023/03/01 02:35:14;;;;;;;10.50;7.70;;;;;;;-0.02;74.31;102808.22;5005988;28;20029;-74
2023/03/01 02:37:42;;;;;;;13.50;8.10;;;;;;;-0.07;77.69;102810.34;5032506;28;20079;-74
2023/03/01 02:40:12;;;;;;;10.15;7.70;;;;;;;-0.15;76.73;102810.03;5033223;28;20061;-74
2023/03/01 02:42:48;;;;;;;12.27;7.90;;;;;;;-0.12;77.10;102815.13;5031931;28;20476;-74
2023/03/01 02:45:14;;;;;;;10.90;7.90;;;;;;;-0.14;76.47;102807.25;5016153;28;20033;-73
2023/03/01 02:47:39;;;;;;;11.35;8.32;;;;;;;-0.10;77.15;102813.22;5033670;28;20078;-74
2023/03/01 02:50:18;;;;;;;9.75;8.05;;;;;;;-0.10;76.34;102818.56;5032579;28;20099;-74
2023/03/01 02:52:59;;;;;;;9.60;7.22;;;;;;;-0.13;76.37;102816.94;5032581;28;20033;-74
2023/03/01 02:55:24;;;;;;;12.25;8.23;;;;;;;-0.09;76.33;102820.25;5012409;28;20108;-74
2023/03/01 02:57:50;;;;;;;10.73;8.40;;;;;;;-0.19;76.74;102812.91;5024279;28;20106;-74
2023/03/01 03:00:22;;;;;;;11.45;8.00;;;;;;;-0.15;77.60;102812.69;5020961;28;20033;-74
2023/03/01 03:02:50;;;;;;;10.65;7.90;;;;;;;-0.22;77.91;102807.78;5028646;28;20052;-74
2023/03/01 03:05:28;;;;;;;10.57;7.90;;;;;;;-0.20;78.34;102811.22;5029174;28;20564;-74
2023/03/01 03:07:55;;;;;;;11.60;7.55;;;;;;;-0.25;78.95;102805.34;5012638;28;20168;-74
2023/03/01 03:10:24;;;;;;;10.88;7.63;;;;;;;-0.28;78.02;102802.88;5018420;28;20026;-74
2023/03/01 03:12:58;;;;;;;10.43;7.57;;;;;;;-0.26;78.96;102798.31;5014740;28;20029;-74
2023/03/01 03:15:25;;;;;;;13.63;8.05;;;;;;;-0.29;78.94;102811.81;5000010;28;20026;-74
2023/03/01 03:17:52;;;;;;;10.23;8.07;;;;;;;-0.32;79.31;102805.88;5031054;28;20048;-74
2023/03/01 03:20:20;;;;;;;9.55;7.72;;;;;;;-0.31;79.09;102815.56;5012699;28;20030;-74
2023/03/01 03:22:51;;;;;;;11.15;8.40;;;;;;;-0.36;79.66;102802.56;5032175;28;20069;-74
2023/03/01 03:25:18;;;;;;;10.45;8.02;;;;;;;-0.31;79.38;102808.44;5013723;28;20365;-74
2023/03/01 03:27:45;;;;;;;10.57;8.00;;;;;;;-0.38;78.18;102801.81;5030828;28;20041;-74
2023/03/01 03:30:16;;;;;;;9.80;7.30;;;;;;;-0.36;78.23;102805.25;5029561;28;20034;-74
2023/03/01 03:32:51;;;;;;;14.18;7.80;;;;;;;-0.40;78.56;102807.25;5014595;28;20040;-74
2023/03/01 03:35:22;;;;;;;9.07;7.32;;;;;;;-0.36;78.73;102802.56;5029740;28;20087;-74
2023/03/01 03:38:03;;;;;;;12.73;7.32;;;;;;;-0.34;78.37;102798.00;5031538;28;20033;-74
2023/03/01 03:40:50;;;;;;;12.85;7.63;;;;;;;-0.31;79.33;102805.75;5029754;28;20060;-74
2023/03/01 03:43:18;;;;;;;10.40;7.18;;;;;;;-0.36;79.47;102797.25;5012637;28;20037;-74
2023/03/01 03:45:45;;;;;;;10.00;7.22;;;;;;;-0.42;80.08;102803.00;5005004;28;20044;-74
2023/03/01 03:48:11;;;;;;;9.85;7.30;;;;;;;-0.41;80.13;102796.69;4998447;28;20088;-74
2023/03/01 03:50:38;;;;;;;10.05;7.13;;;;;;;-0.44;79.78;102808.44;4993913;28;20402;-74
2023/03/01 03:53:07;;;;;;;11.85;7.40;;;;;;;-0.46;79.55;102796.19;5030954;28;20075;-74
2023/03/01 03:55:34;;;;;;;10.02;7.55;;;;;;;-0.42;80.76;102797.69;5013512;28;20022;-74
2023/03/01 03:58:06;;;;;;;9.77;6.90;;;;;;;-0.46;79.94;102801.50;5031953;28;20033;-74
2023/03/01 04:00:35;;;;;;;9.35;6.95;;;;;;;-0.45;79.46;102797.88;5010689;28;20497;-73
2023/03/01 04:03:00;;;;;;;11.25;7.43;;;;;;;-0.48;81.22;102790.97;4997094;28;20040;-73
2023/03/01 04:05:26;;;;;;;9.07;6.75;;;;;;;-0.47;81.01;102789.16;5027199;28;20033;-73
2023/03/01 04:08:06;;;;;;;9.05;6.80;;;;;;;-0.56;82.08;102793.28;5031616;28;20040;-73
2023/03/01 04:10:36;;;;;;;9.65;7.40;;;;;;;-0.58;83.09;102782.75;5030535;28;20037;-74
2023/03/01 04:13:02;;;;;;;11.68;6.95;;;;;;;-0.57;81.83;102772.97;5032094;28;20064;-73
2023/03/01 04:15:27;;;;;;;12.07;6.97;;;;;;;-0.62;83.03;102773.28;5031270;28;20038;-73
2023/03/01 04:17:54;;;;;;;12.00;6.88;;;;;;;-0.59;82.07;102781.06;5006329;28;20060;-73
2023/03/01 04:20:26;;;;;;;9.60;7.03;;;;;;;-0.69;82.28;102774.66;5011250;28;20035;-74
2023/03/01 04:22:57;;;;;;;7.97;6.13;;;;;;;-0.67;84.24;102766.56;4994701;28;20038;-74
2023/03/01 04:25:22;;;;;;;9.98;6.90;;;;;;;-0.65;83.77;102783.25;5012253;28;20053;-74
2023/03/01 04:27:48;;;;;;;9.30;6.85;;;;;;;-0.70;83.05;102764.97;5004946;28;20022;-74
2023/03/01 04:30:13;;;;;;;12.30;7.35;;;;;;;-0.65;83.41;102765.53;5012720;28;20061;-74
2023/03/01 04:32:39;;;;;;;9.30;6.70;;;;;;;-0.66;83.20;102778.91;5018368;28;20686;-74
2023/03/01 04:35:06;;;;;;;9.57;7.00;;;;;;;-0.70;84.19;102772.94;5022649;28;20041;-75
2023/03/01 04:37:32;;;;;;;11.43;6.72;;;;;;;-0.75;84.19;102764.44;5011816;28;20125;-74
2023/03/01 04:39:57;;;;;;;8.18;6.70;;;;;;;-0.75;84.60;102770.59;5015547;28;20029;-74
2023/03/01 04:42:22;;;;;;;10.82;7.05;;;;;;;-0.73;84.11;102768.66;5030849;28;20144;-74
2023/03/01 04:44:51;;;;;;;10.38;7.00;;;;;;;-0.71;84.17;102763.25;5033962;28;20033;-75
2023/03/01 04:47:16;;;;;;;10.48;7.60;;;;;;;-0.77;83.91;102767.19;5010063;28;20088;-74
2023/03/01 04:49:42;;;;;;;11.90;7.68;;;;;;;-0.74;84.32;102753.69;5017382;28;20026;-74
2023/03/01 04:52:07;;;;;;;10.88;7.40;;;;;;;-0.75;86.37;102743.16;5016809;28;20046;-75
2023/03/01 04:54:34;;;;;;;10.40;7.38;;;;;;;-0.78;86.43;102748.69;5033676;28;20029;-75
2023/03/01 04:57:01;;;;;;;9.45;7.80;;;;;;;-0.81;85.92;102746.25;5033727;28;20508;-75
2023/03/01 04:59:27;;;;;;;11.82;7.22;;;;;;;-0.78;85.54;102733.59;5016953;28;20094;-75
2023/03/01 05:01:56;;;;;;;11.73;7.47;;;;;;;-0.82;87.03;102739.22;5032775;28;20032;-75
2023/03/01 05:04:23;;;;;;;10.35;7.38;;;;;;;-0.82;86.64;102747.19;5034683;28;20040;-74
2023/03/01 05:06:48;;;;;;;10.63;7.15;;;;;;;-0.77;85.36;102747.72;5034435;28;20026;-75
2023/03/01 05:09:14;;;;;;;11.68;7.47;;;;;;;-0.77;86.27;102750.38;5033524;28;20032;-75
2023/03/01 05:11:39;;;;;;;9.00;7.55;;;;;;;-0.78;85.89;102746.88;5034710;28;20079;-74
2023/03/01 05:14:06;;;;;;;11.32;7.70;;;;;;;-0.75;84.94;102749.31;5033370;28;20033;-74
2023/03/01 05:16:33;;;;;;;13.02;7.93;;;;;;;-0.77;84.97;102750.38;5032064;28;20067;-74
2023/03/01 05:18:59;;;;;;;11.70;8.15;;;;;;;-0.82;85.68;102753.34;5041755;28;20388;-74
2023/03/01 05:21:25;;;;;;;10.15;7.60;;;;;;;-0.84;87.06;102743.78;5033506;28;20110;-74
2023/03/01 05:23:51;;;;;;;12.02;7.28;;;;;;;-0.82;86.79;102736.56;5035011;28;20044;-74
2023/03/01 05:26:18;;;;;;;9.73;7.50;;;;;;;-0.81;85.71;102733.78;5033810;28;20393;-74
2023/03/01 05:28:44;;;;;;;11.32;7.70;;;;;;;-0.83;86.55;102725.09;5020552;28;20038;-74
2023/03/01 05:31:09;;;;;;;10.77;7.53;;;;;;;-0.82;86.44;102720.59;5029299;28;20029;-74
2023/03/01 05:33:40;;;;;;;10.93;7.90;;;;;;;-0.82;86.91;102710.81;5021172;28;20030;-74
2023/03/01 05:36:07;;;;;;;12.88;7.72;;;;;;;-0.82;85.58;102721.44;5033715;28;20452;-74
2023/03/01 05:38:33;;;;;;;15.38;7.63;;;;;;;-0.80;85.76;102713.38;5025402;28;20026;-74
2023/03/01 05:40:59;;;;;;;17.52;8.48;;;;;;;-0.79;85.55;102704.44;5033158;28;20041;-74
2023/03/01 05:43:25;;;;;;;13.50;8.13;;;;;;;-0.82;85.65;102704.66;5033772;28;20091;-74
2023/03/01 05:45:51;;;;;;;16.33;8.95;;;;;;;-0.85;86.49;102704.88;5015654;28;20079;-74
2023/03/01 05:48:16;;;;;;;16.77;9.40;;;;;;;-0.81;86.76;102706.38;5014703;28;20039;-74
2023/03/01 05:50:43;;;;;;;19.65;10.65;;;;;;;-0.88;87.35;102700.59;5006085;28;20504;-74
2023/03/01 05:53:23;;;;;;;24.23;12.05;;;;;;;-0.86;88.34;102704.03;5025381;28;20041;-74
2023/03/01 05:55:49;;;;;;;16.85;10.23;;;;;;;-0.92;87.60;102699.97;5016792;28;20112;-74
2023/03/01 05:58:18;;;;;;;14.15;8.88;;;;;;;-0.91;86.41;102707.00;5033172;28;20950;-74
2023/03/01 06:00:44;;;;;;;12.50;8.40;;;;;;;-0.89;87.04;102706.91;5010870;28;20030;-74
2023/03/01 06:03:12;;;;;;;12.27;8.30;;;;;;;-0.92;86.10;102705.28;5019135;28;21864;-74
2023/03/01 06:05:41;;;;;;;12.57;8.30;;;;;;;-0.95;87.33;102699.31;5044411;28;20065;-74
2023/03/01 06:08:09;;;;;;;15.25;8.75;;;;;;;-0.95;86.79;102700.19;5020808;28;20057;-74
2023/03/01 06:10:34;;;;;;;11.48;8.18;;;;;;;-0.98;88.25;102704.84;5019165;28;20033;-74
2023/03/01 06:13:02;;;;;;;13.15;8.18;;;;;;;-0.97;88.43;102701.22;5033126;28;20393;-74
2023/03/01 06:15:28;;;;;;;12.52;8.30;;;;;;;-1.02;88.67;102698.88;5015376;28;20416;-74
2023/03/01 06:17:56;;;;;;;13.15;8.30;;;;;;;-1.02;88.93;102704.19;5032911;28;20028;-74
2023/03/01 06:20:24;;;;;;;12.30;8.23;;;;;;;-1.08;90.48;102694.81;5014955;28;20112;-74
2023/03/01 06:22:50;;;;;;;11.18;8.25;;;;;;;-1.05;91.34;102692.94;4998195;28;20457;-74
2023/03/01 06:25:20;;;;;;;12.05;8.30;;;;;;;-1.02;89.19;102706.00;5027432;28;20062;-74
2023/03/01 06:27:52;;;;;;;9.73;8.10;;;;;;;-1.03;90.59;102705.16;5031645;28;20080;-74
2023/03/01 06:30:19;;;;;;;13.85;8.55;;;;;;;-1.02;90.44;102704.19;5022814;28;20136;-74
2023/03/01 06:32:49;;;;;;;18.42;10.52;;;;;;;-1.02;90.06;102704.19;5012632;28;20053;-74
2023/03/01 06:35:17;;;;;;;19.50;10.80;;;;;;;-1.01;90.43;102705.91;5031849;28;20552;-74
2023/03/01 06:37:43;;;;;;;15.23;9.73;;;;;;;-1.05;91.23;102704.41;5029799;28;20033;-74
2023/03/01 06:40:11;;;;;;;13.38;9.65;;;;;;;-1.04;90.18;102706.13;5013788;28;20021;-74
2023/03/01 06:42:38;;;;;;;15.13;9.50;;;;;;;-1.02;89.05;102714.00;5026012;28;20041;-74
2023/03/01 06:45:08;;;;;;;14.10;9.80;;;;;;;-1.00;89.58;102712.91;5015215;28;20416;-74
2023/03/01 06:47:34;;;;;;;12.30;8.57;;;;;;;-0.99;89.90;102714.63;5034153;28;20160;-74
2023/03/01 06:50:00;;;;;;;14.23;9.10;;;;;;;-0.97;90.42;102707.38;5015181;28;20131;-74
2023/03/01 06:52:25;;;;;;;14.40;8.70;;;;;;;-0.96;90.39;102711.75;5003119;28;20116;-74
2023/03/01 06:54:50;;;;;;;13.23;8.82;;;;;;;-0.95;90.99;102704.63;5025139;28;20546;-74
2023/03/01 06:57:16;;;;;;;12.00;8.95;;;;;;;-0.97;91.20;102711.84;5029932;28;20035;-74
2023/03/01 06:59:41;;;;;;;12.32;8.70;;;;;;;-0.93;89.66;102710.72;5030940;28;20040;-74
2023/03/01 07:02:11;;;;;;;11.88;9.05;;;;;;;-0.92;90.98;102712.38;5016895;28;20036;-74
2023/03/01 07:04:39;;;;;;;15.63;9.55;;;;;;;-0.93;90.37;102694.75;5031249;28;20040;-74
2023/03/01 07:07:05;;;;;;;15.23;8.85;;;;;;;-0.87;90.15;102701.47;5014071;28;20494;-74
2023/03/01 07:09:30;;;;;;;11.77;8.63;;;;;;;-0.81;89.44;102703.72;5004612;28;20060;-74
2023/03/01 07:11:56;;;;;;;12.48;9.10;;;;;;;-0.83;90.05;102702.94;5007857;28;20466;-74
2023/03/01 07:14:28;;;;;;;13.95;9.23;;;;;;;-0.83;88.84;102692.31;5024382;28;20117;-74
2023/03/01 07:16:53;;;;;;;13.68;9.45;;;;;;;-0.74;88.96;102710.28;5017270;28;20033;-74
2023/03/01 07:19:19;;;;;;;14.23;9.38;;;;;;;-0.73;88.99;102712.00;5001266;28;20072;-74
2023/03/01 07:21:44;;;;;;;13.07;9.18;;;;;;;-0.70;89.79;102708.28;5031424;28;20112;-74
2023/03/01 07:24:10;;;;;;;13.65;9.32;;;;;;;-0.71;88.86;102718.06;5013481;28;20036;-74
2023/03/01 07:26:36;;;;;;;14.20;9.68;;;;;;;-0.67;89.40;102719.56;5031660;28;20135;-75
2023/03/01 07:29:04;;;;;;;15.98;9.52;;;;;;;-0.61;89.41;102726.28;5027951;28;20044;-75
2023/03/01 07:31:29;;;;;;;13.02;9.15;;;;;;;-0.58;87.92;102715.41;5021069;28;20083;-74
2023/03/01 07:33:55;;;;;;;14.43;9.45;;;;;;;-0.50;87.89;102722.88;5014005;28;20034;-75
2023/03/01 07:36:21;;;;;;;13.63;9.88;;;;;;;-0.50;89.12;102725.53;5027327;28;20500;-74
2023/03/01 07:38:46;;;;;;;16.58;9.35;;;;;;;-0.45;88.98;102724.25;5021910;28;20044;-75
2023/03/01 07:41:12;;;;;;;16.75;10.27;;;;;;;-0.40;87.43;102715.97;5016283;28;20037;-75
2023/03/01 07:43:37;;;;;;;11.88;8.90;;;;;;;-0.41;88.83;102714.25;5033339;28;20103;-74
2023/03/01 07:46:06;;;;;;;11.65;8.93;;;;;;;-0.34;87.93;102709.38;5012726;28;20481;-74
2023/03/01 07:48:33;;;;;;;13.68;9.55;;;;;;;-0.33;87.64;102719.03;5021687;28;20030;-74
2023/03/01 07:50:59;;;;;;;14.60;9.98;;;;;;;-0.27;88.27;102718.59;5013544;28;20072;-74
2023/03/01 07:53:25;;;;;;;12.73;8.77;;;;;;;-0.24;87.05;102727.22;5013847;28;20045;-74
2023/03/01 07:56:00;;;;;;;12.00;9.10;;;;;;;-0.19;87.71;102714.44;4999494;28;20096;-74
2023/03/01 07:58:25;;;;;;;14.63;9.55;;;;;;;-0.17;86.85;102716.16;5005115;28;20026;-74
2023/03/01 08:00:51;;;;;;;13.23;9.55;;;;;;;-0.10;87.66;102712.09;5011178;28;20026;-74
2023/03/01 08:03:16;;;;;;;16.02;9.88;;;;;;;-0.06;86.53;102716.22;5023240;28;20045;-74
2023/03/01 08:05:41;;;;;;;11.80;9.10;;;;;;;-0.02;87.17;102710.56;5033004;28;20036;-74
2023/03/01 08:08:07;;;;;;;15.40;10.38;;;;;;;0.03;86.12;102718.25;5035595;28;20091;-74
2023/03/01 08:10:36;;;;;;;15.27;9.55;;;;;;;0.07;85.81;102717.06;5018424;28;20033;-74
2023/03/01 08:13:01;;;;;;;14.65;9.80;;;;;;;0.12;86.19;102722.06;5004919;28;20528;-75
2023/03/01 08:15:29;;;;;;;12.10;9.88;;;;;;;0.23;85.54;102715.94;5014789;28;20061;-74
2023/03/01 08:17:54;;;;;;;15.60;9.65;;;;;;;0.24;84.88;102720.31;5015991;28;20481;-74
2023/03/01 08:20:20;;;;;;;16.38;9.88;;;;;;;0.34;85.17;102724.03;5019369;28;20029;-74
2023/03/01 08:22:46;;;;;;;13.77;9.95;;;;;;;0.30;86.91;102720.75;5031578;28;20039;-74
2023/03/01 08:25:11;;;;;;;16.17;9.73;;;;;;;0.35;86.50;102721.25;5055085;28;20044;-74
2023/03/01 08:27:36;;;;;;;14.98;10.18;;;;;;;0.39;85.28;102719.19;5054538;28;20056;-75
2023/03/01 08:30:02;;;;;;;11.43;9.30;;;;;;;0.42;85.04;102718.13;5023471;28;20033;-75
2023/03/01 08:32:28;;;;;;;13.13;9.88;;;;;;;0.52;85.40;102713.84;5035211;28;20026;-74
2023/03/01 08:34:53;;;;;;;16.13;9.98;;;;;;;0.52;86.76;102713.84;5035689;28;20040;-74
2023/03/01 08:37:18;;;;;;;13.68;9.80;;;;;;;0.55;85.66;102712.78;5035118;28;20025;-74
2023/03/01 08:39:49;;;;;;;12.68;10.10;;;;;;;0.58;85.05;102712.53;5017791;28;20025;-74
2023/03/01 08:42:14;;;;;;;13.75;9.45;;;;;;;0.62;86.47;102706.00;5052024;28;20120;-74
2023/03/01 08:44:42;;;;;;;13.75;9.30;;;;;;;0.69;84.71;102705.47;5042883;28;20229;-74
2023/03/01 08:47:07;;;;;;;14.07;9.50;;;;;;;0.74;83.83;102694.47;5032655;28;20044;-74
2023/03/01 08:49:33;;;;;;;16.08;10.05;;;;;;;0.78;86.55;102695.91;5034413;28;20037;-74
2023/03/01 08:51:58;;;;;;;14.98;9.90;;;;;;;0.86;83.55;102680.22;5034528;28;20061;-74
2023/03/01 08:54:24;;;;;;;12.32;9.48;;;;;;;0.94;83.70;102682.28;5027427;28;20473;-74
2023/03/01 08:56:49;;;;;;;11.80;9.18;;;;;;;1.01;81.60;102696.00;5028839;28;20030;-75
2023/03/01 08:59:17;;;;;;;12.23;9.02;;;;;;;1.06;82.92;102685.84;5029793;28;20033;-75
2023/03/01 09:01:43;;;;;;;12.88;9.88;;;;;;;1.11;82.67;102699.66;5006391;28;20034;-75
2023/03/01 09:04:09;;;;;;;13.45;9.50;;;;;;;1.19;81.58;102691.94;5009818;28;20034;-75
2023/03/01 09:06:35;;;;;;;12.52;9.82;;;;;;;1.26;82.13;102694.13;5018156;28;20028;-75
2023/03/01 09:09:01;;;;;;;14.13;9.15;;;;;;;1.35;80.38;102690.75;5033710;28;20035;-75
2023/03/01 09:11:28;;;;;;;13.20;9.70;;;;;;;1.41;79.42;102685.78;5034221;28;20330;-75
2023/03/01 09:13:53;;;;;;;15.63;11.40;;;;;;;1.50;77.75;102680.72;5016928;28;20041;-75
2023/03/01 09:16:24;;;;;;;18.05;13.10;;;;;;;1.58;77.77;102679.13;5032549;28;20036;-75
2023/03/01 09:18:51;;;;;;;16.38;11.15;;;;;;;1.67;76.22;102676.69;5033571;28;20038;-75
2023/03/01 09:21:18;;;;;;;10.15;8.30;;;;;;;1.69;74.46;102672.09;5041049;28;20094;-75
2023/03/01 09:23:45;;;;;;;11.00;8.50;;;;;;;1.77;74.94;102677.69;5013717;28;20036;-74
2023/03/01 09:26:16;;;;;;;9.98;8.27;;;;;;;1.84;73.35;102670.88;5013224;28;20100;-76
2023/03/01 09:28:41;;;;;;;12.77;8.75;;;;;;;1.94;72.39;102681.66;5033217;28;20033;-76
2023/03/01 09:31:06;;;;;;;12.35;8.85;;;;;;;2.01;72.24;102666.84;5016136;28;20121;-74
2023/03/01 09:33:33;;;;;;;10.95;8.50;;;;;;;2.03;71.78;102662.22;5021097;28;20037;-75
2023/03/01 09:36:00;;;;;;;10.68;8.52;;;;;;;2.08;71.33;102661.84;5034221;28;20029;-76
2023/03/01 09:38:26;;;;;;;9.57;7.57;;;;;;;2.13;70.75;102659.69;5016392;28;20517;-76
2023/03/01 09:40:51;;;;;;;14.15;8.60;;;;;;;2.21;71.02;102661.72;5034428;28;20048;-75
2023/03/01 09:43:39;;;;;;;9.63;8.20;;;;;;;2.22;69.71;102652.72;5018840;28;20033;-74
2023/03/01 09:46:09;;;;;;;15.88;10.30;;;;;;;2.27;69.24;102651.38;5051052;28;20045;-76
2023/03/01 09:48:48;;;;;;;15.00;8.65;;;;;;;2.33;69.42;102652.69;5032492;28;20091;-76
2023/03/01 09:51:19;;;;;;;11.35;8.02;;;;;;;2.37;69.27;102653.28;5014298;28;20029;-75
2023/03/01 09:53:47;;;;;;;15.03;9.07;;;;;;;2.45;69.01;102650.84;5016451;28;20584;-75
2023/03/01 09:56:35;;;;;;;13.25;9.82;;;;;;;2.48;69.70;102635.38;5047610;28;20025;-75
2023/03/01 09:59:40;;;;;;;10.98;8.20;;;;;;;2.62;68.51;102634.22;5033316;28;20392;-76
2023/03/01 10:02:28;;;;;;;13.32;8.10;;;;;;;2.69;66.67;102633.72;5030149;28;20041;-76
2023/03/01 10:05:42;;;;;;;12.02;8.07;;;;;;;2.72;67.04;102625.44;5015758;28;20037;-77
2023/03/01 10:08:23;;;;;;;12.10;7.78;;;;;;;2.76;66.95;102616.19;4987135;28;20052;-76
2023/03/01 10:10:50;;;;;;;16.30;8.37;;;;;;;2.84;65.87;102611.91;5023559;28;20472;-75
2023/03/01 10:13:18;;;;;;;12.52;7.75;;;;;;;2.91;64.63;102622.91;4997569;28;20034;-76
2023/03/01 10:15:55;;;;;;;10.40;7.85;;;;;;;2.99;63.89;102617.75;5021798;28;20104;-74
2023/03/01 10:18:37;;;;;;;11.30;7.25;;;;;;;3.05;64.17;102607.50;5013819;28;20034;-76
2023/03/01 10:21:15;;;;;;;9.77;7.07;;;;;;;3.07;63.28;102602.88;5006062;28;20084;-77
2023/03/01 10:23:40;;;;;;;14.10;7.47;;;;;;;3.08;62.70;102599.22;5026418;28;20116;-76
2023/03/01 10:26:11;;;;;;;9.65;7.60;;;;;;;3.11;62.36;102598.94;5045723;28;20187;-75
2023/03/01 10:29:02;;;;;;;10.27;7.82;;;;;;;3.18;63.59;102590.25;5011957;28;20099;-76
2023/03/01 10:31:46;;;;;;;14.05;7.93;;;;;;;3.17;63.43;102591.25;5027669;28;20580;-77
2023/03/01 10:48:19;;;;;;;11.73;8.07;;;;;;;3.46;62.90;102579.00;5030321;28;20037;-78
2023/03/01 10:51:08;;;;;;;10.57;7.70;;;;;;;3.58;62.03;102588.59;4997532;28;20057;-78
2023/03/01 10:53:37;;;;;;;11.57;8.45;;;;;;;3.57;61.24;102570.00;5024998;28;20090;-74
2023/03/01 10:56:14;;;;;;;10.63;7.68;;;;;;;3.65;60.86;102573.66;5012013;28;20579;-78
2023/03/01 11:13:05;;;;;;;9.73;7.65;;;;;;;4.04;57.31;102565.72;5032658;28;20090;-79
2023/03/01 11:15:33;;;;;;;10.38;8.10;;;;;;;4.13;56.75;102576.59;5032865;28;20025;-77
2023/03/01 11:18:44;;;;;;;12.40;8.48;;;;;;;4.18;58.72;102585.03;5030472;28;20421;-79
2023/03/01 11:21:11;;;;;;;10.87;8.13;;;;;;;4.25;57.76;102570.09;5012951;28;20076;-77
2023/03/01 11:23:50;;;;;;;13.63;8.50;;;;;;;4.22;55.58;102576.59;5014482;28;20306;-76
2023/03/01 11:58:04;;;;;;;;;;;;;;;;;;;;;
2023/03/01 12:07:44;;;;;;;14.00;8.60;;;;;;;5.22;55.13;102536.03;5032247;28;20539;-81
2023/03/01 12:10:44;;;;;;;11.25;7.57;;;;;;;5.26;54.10;102535.59;5044914;28;20254;-78
2023/03/01 12:13:47;;;;;;;12.35;8.93;;;;;;;5.36;54.60;102535.56;5031307;28;20024;-76
2023/03/01 12:16:28;;;;;;;15.82;9.20;;;;;;;5.35;53.84;102524.97;5030312;28;20034;-76
2023/03/01 12:19:08;;;;;;;11.97;8.30;;;;;;;5.33;53.51;102528.63;5036413;28;20031;-77
2023/03/01 12:21:58;;;;;;;14.57;8.75;;;;;;;5.43;54.66;102536.63;5049261;28;20033;-76
2023/03/01 12:24:47;;;;;;;11.00;8.00;;;;;;;5.53;53.92;102522.31;5049502;28;20107;-74
2023/03/01 12:27:50;;;;;;;10.80;8.18;;;;;;;5.54;53.67;102516.81;5050122;28;20114;-80
2023/03/01 12:30:53;;;;;;;12.90;7.95;;;;;;;5.45;54.22;102521.22;5026955;28;20048;-78
2023/03/01 12:33:49;;;;;;;13.15;8.30;;;;;;;5.42;53.58;102508.09;5031708;28;20044;-75
2023/03/01 12:37:10;;;;;;;10.43;7.93;;;;;;;5.41;53.33;102517.16;5027494;28;20092;-75
2023/03/01 12:40:16;;;;;;;11.10;7.68;;;;;;;5.36;53.00;102505.16;5023806;28;20345;-75
2023/03/01 12:46:42;;;;;;;9.32;7.90;;;;;;;5.29;53.69;102483.44;5034112;28;20384;-75
2023/03/01 12:49:52;;;;;;;10.52;7.68;;;;;;;5.29;53.78;102481.59;5027092;28;20022;-76